Weather at Fort Erie (Eurocopter Canada) Heliport

Public forecast

Using degrees Celsius for public forecast. Weather courtesy of forecast.io.

Closest aviation weather report (METAR) to Fort Erie (Eurocopter Canada) Heliport

Closest report is Buffalo Niagara International Airport, 9.9 nm (18.4 km) E. Retrieved 2020/09/20 10:54 UTC (23 minutes ago):

KBUF 201054Z 00000KT 10SM BKN095 BKN130 07/01 A3051 RMK AO2 SLP337 T00670011

Closest aviation forecast (TAF) to Fort Erie (Eurocopter Canada) Heliport

Closest forecast is Buffalo Niagara International Airport, 9.9 nm (18.4 km) E. Retrieved 2020/09/20 06:30 UTC (5 hours ago):

TAF KBUF 200527Z 2006/2106 13006KT P6SM BKN180 FM201300 13007KT P6SM FEW250 FM201900 08010KT P6SM SKC FM210200 10007KT P6SM SKC